Time;durP1;ratioP1;P1;durP2;ratioP2;P2;SDS_P1;SDS_P2;PMS_P1;PMS_P2;Temp;Humidity;BMP_temperature;BMP_pressure;BME280_temperature;BME280_humidity;BME280_pressure;Samples;Min_cycle;Max_cycle;Signal;HPM_P1;HPM_P2
2021/04/07 00:04:14;;;;;;;1.17;0.60;;;19.20;49.60;;;;;;10383971;28;20273;-67
2021/04/07 00:09:35;;;;;;;2.03;0.70;;;19.20;49.60;;;;;;10374803;28;20234;-67
2021/04/07 00:14:57;;;;;;;1.23;0.60;;;19.20;49.60;;;;;;10374960;28;20221;-67
2021/04/07 00:20:22;;;;;;;0.83;0.60;;;19.20;49.60;;;;;;10374729;28;20194;-67
2021/04/07 00:25:44;;;;;;;0.70;0.50;;;19.20;49.60;;;;;;10374653;28;20215;-67
2021/04/07 00:31:05;;;;;;;1.47;0.63;;;19.20;49.60;;;;;;10374212;28;20697;-67
2021/04/07 00:36:28;;;;;;;1.40;1.00;;;19.20;49.60;;;;;;10392778;28;20222;-67
2021/04/07 00:41:49;;;;;;;1.47;0.93;;;19.20;49.50;;;;;;10406169;28;20202;-67
2021/04/07 00:47:12;;;;;;;0.83;0.50;;;19.20;49.60;;;;;;10373539;28;20222;-67
2021/04/07 00:52:37;;;;;;;0.60;0.60;;;19.20;49.60;;;;;;10373253;28;20598;-68
2021/04/07 00:58:00;;;;;;;1.00;0.50;;;19.20;49.60;;;;;;10357331;28;20195;-67
2021/04/07 01:03:21;;;;;;;1.17;0.60;;;19.20;49.50;;;;;;10331754;28;20232;-67
2021/04/07 01:08:44;;;;;;;1.57;0.83;;;19.20;49.50;;;;;;10331622;28;20571;-68
2021/04/07 01:14:06;;;;;;;2.00;0.70;;;19.10;49.50;;;;;;10331980;28;20269;-66
2021/04/07 01:19:28;;;;;;;1.37;0.70;;;19.10;49.50;;;;;;10330770;28;20196;-67
2021/04/07 01:24:51;;;;;;;0.90;0.77;;;19.10;50.10;;;;;;10331070;28;20277;-66
2021/04/07 01:30:16;;;;;;;1.37;0.70;;;19.10;49.50;;;;;;10330603;28;20223;-67
2021/04/07 01:35:38;;;;;;;1.30;0.83;;;19.10;49.50;;;;;;10364185;28;20218;-67
2021/04/07 01:41:02;;;;;;;0.97;0.63;;;19.10;49.50;;;;;;10410581;28;20194;-66
2021/04/07 01:46:24;;;;;;;0.70;0.60;;;19.10;49.60;;;;;;10371538;28;20214;-67
2021/04/07 01:51:45;;;;;;;1.20;0.60;;;19.10;49.50;;;;;;10376166;28;20197;-68
2021/04/07 01:57:09;;;;;;;1.27;0.87;;;19.10;49.40;;;;;;10397059;28;20213;-67
2021/04/07 02:02:30;;;;;;;1.77;0.70;;;19.10;49.40;;;;;;10406656;28;20724;-67
2021/04/07 02:07:52;;;;;;;1.23;0.70;;;19.20;49.40;;;;;;10379373;28;20732;-67
2021/04/07 02:13:14;;;;;;;1.43;0.77;;;19.10;49.40;;;;;;10370595;28;20292;-67
2021/04/07 02:18:36;;;;;;;1.40;0.70;;;19.10;49.50;;;;;;10370218;28;20203;-63
2021/04/07 02:23:57;;;;;;;1.27;0.70;;;19.10;49.40;;;;;;10370238;28;20218;-67
2021/04/07 02:29:20;;;;;;;2.27;0.77;;;19.10;49.40;;;;;;10370251;28;20225;-67
2021/04/07 02:34:43;;;;;;;0.73;0.50;;;19.10;49.40;;;;;;10376657;28;21026;-67
2021/04/07 02:40:06;;;;;;;0.70;0.50;;;19.10;49.40;;;;;;10329102;28;20309;-68
2021/04/07 02:45:28;;;;;;;0.83;0.50;;;19.10;49.50;;;;;;10398654;28;20220;-66
2021/04/07 02:50:50;;;;;;;0.53;0.50;;;19.10;49.50;;;;;;10409874;28;20217;-66
2021/04/07 02:56:12;;;;;;;2.83;0.80;;;19.10;49.40;;;;;;10409896;28;20221;-68
2021/04/07 03:01:34;;;;;;;1.07;0.60;;;19.10;49.30;;;;;;10409861;28;20585;-64
2021/04/07 03:06:56;;;;;;;1.27;0.50;;;19.10;49.30;;;;;;10409363;28;20221;-67
2021/04/07 03:12:18;;;;;;;0.93;0.70;;;19.10;49.30;;;;;;10409515;28;20258;-66
2021/04/07 03:17:40;;;;;;;0.63;0.60;;;19.10;49.40;;;;;;10408787;28;20193;-67
2021/04/07 03:23:02;;;;;;;2.63;0.90;;;19.10;49.40;;;;;;10409233;28;20750;-66
2021/04/07 03:28:24;;;;;;;1.37;0.67;;;19.10;49.30;;;;;;10408715;28;20255;-66
2021/04/07 03:33:47;;;;;;;0.70;0.37;;;19.10;49.30;;;;;;10401330;28;20747;-66
2021/04/07 03:39:08;;;;;;;1.40;0.63;;;19.10;49.30;;;;;;10393907;28;20198;-62
2021/04/07 03:44:30;;;;;;;2.10;0.90;;;19.00;49.20;;;;;;10381171;28;20588;-66
2021/04/07 03:49:52;;;;;;;1.80;0.70;;;19.10;49.10;;;;;;10375290;28;20632;-67
2021/04/07 03:55:14;;;;;;;2.17;0.83;;;19.10;49.00;;;;;;10373248;28;20230;-67
2021/04/07 04:00:36;;;;;;;1.47;0.60;;;19.20;48.90;;;;;;10374852;28;20193;-68
2021/04/07 04:05:58;;;;;;;1.63;0.70;;;19.20;48.90;;;;;;10382081;28;20230;-67
2021/04/07 04:11:20;;;;;;;3.30;1.03;;;19.20;48.90;;;;;;10383126;28;20202;-67
2021/04/07 04:16:43;;;;;;;1.03;0.60;;;19.20;48.90;;;;;;10374639;28;20210;-66
2021/04/07 04:22:07;;;;;;;1.37;0.60;;;19.10;48.90;;;;;;10373908;28;20198;-67
2021/04/07 04:27:29;;;;;;;2.07;0.83;;;19.20;49.00;;;;;;10374030;28;20250;-67
2021/04/07 04:32:50;;;;;;;0.87;0.60;;;19.20;48.90;;;;;;10373240;28;20202;-67
2021/04/07 04:38:13;;;;;;;1.53;0.77;;;19.20;48.90;;;;;;10376020;28;20191;-67
2021/04/07 04:43:34;;;;;;;0.83;0.47;;;19.30;48.90;;;;;;10396356;28;20214;-67
2021/04/07 04:48:56;;;;;;;1.10;0.63;;;19.20;48.80;;;;;;10413984;28;20219;-67
2021/04/07 04:54:18;;;;;;;1.47;0.67;;;19.20;48.80;;;;;;10413085;28;20228;-67
2021/04/07 04:59:40;;;;;;;1.17;0.60;;;19.30;48.80;;;;;;10413622;28;20194;-67
2021/04/07 05:05:02;;;;;;;1.17;0.60;;;19.30;48.80;;;;;;10442972;22;20613;-52
2021/04/07 05:10:25;;;;;;;0.87;0.50;;;19.30;48.70;;;;;;10433530;28;20279;-56
2021/04/07 05:15:46;;;;;;;2.10;0.70;;;19.30;48.70;;;;;;10422869;28;20693;-53
2021/04/07 05:21:08;;;;;;;1.30;0.50;;;19.30;48.80;;;;;;10427295;28;20205;-52
2021/04/07 05:26:31;;;;;;;0.93;0.50;;;19.20;48.80;;;;;;10427160;28;20220;-56
2021/04/07 05:31:52;;;;;;;1.47;0.80;;;19.30;48.80;;;;;;10409690;28;20220;-52
2021/04/07 05:37:14;;;;;;;1.17;0.50;;;19.30;48.80;;;;;;10411377;28;20513;-52
2021/04/07 05:42:36;;;;;;;0.57;0.47;;;19.30;48.70;;;;;;10425332;28;20732;-53
2021/04/07 05:47:58;;;;;;;1.93;0.83;;;19.30;48.70;;;;;;10416401;28;20583;-51
2021/04/07 05:53:20;;;;;;;1.50;0.50;;;19.30;48.70;;;;;;10410279;28;20217;-56
2021/04/07 05:58:42;;;;;;;0.67;0.50;;;19.30;48.80;;;;;;10411462;28;20553;-55
2021/04/07 06:04:05;;;;;;;1.37;0.60;;;19.20;48.70;;;;;;10413854;28;20686;-54
2021/04/07 06:09:26;;;;;;;1.83;0.80;;;19.20;48.70;;;;;;10445955;28;20572;-56
2021/04/07 06:14:49;;;;;;;1.57;0.77;;;19.20;48.70;;;;;;10446087;28;20197;-53
2021/04/07 06:20:12;;;;;;;3.37;0.70;;;19.30;48.70;;;;;;10444471;28;20220;-52
2021/04/07 06:25:34;;;;;;;0.83;0.60;;;19.30;48.70;;;;;;10446245;28;20200;-57
2021/04/07 06:30:56;;;;;;;1.80;0.80;;;19.30;48.70;;;;;;10450281;28;20225;-55
2021/04/07 06:36:18;;;;;;;1.03;0.47;;;19.20;48.70;;;;;;10445963;28;20193;-54
2021/04/07 06:41:40;;;;;;;1.70;0.70;;;19.20;48.70;;;;;;10449522;28;20221;-51
2021/04/07 06:47:05;;;;;;;1.20;0.60;;;19.30;48.70;;;;;;10449837;28;20715;-51
2021/04/07 06:52:26;;;;;;;1.23;0.63;;;19.30;48.70;;;;;;10450828;28;20284;-53
2021/04/07 06:57:48;;;;;;;0.70;0.57;;;19.30;48.60;;;;;;10451522;28;20566;-52
2021/04/07 07:03:13;;;;;;;2.03;0.80;;;19.30;48.60;;;;;;10449257;28;20221;-55
2021/04/07 07:08:34;;;;;;;1.43;0.50;;;19.30;48.60;;;;;;10423193;28;20213;-55
2021/04/07 07:13:58;;;;;;;0.90;0.33;;;19.30;48.60;;;;;;10408950;28;20216;-56
2021/04/07 07:19:25;;;;;;;1.40;0.60;;;19.30;48.60;;;;;;10412594;28;20209;-56
2021/04/07 07:24:51;;;;;;;1.53;0.63;;;19.30;48.60;;;;;;10416878;28;20197;-51
2021/04/07 07:30:15;;;;;;;1.67;0.60;;;19.30;48.60;;;;;;10416536;28;20222;-56
2021/04/07 07:35:37;;;;;;;1.00;0.50;;;19.30;48.60;;;;;;10415980;28;20201;-56
2021/04/07 07:41:00;;;;;;;1.93;0.67;;;19.30;48.60;;;;;;10448867;28;20221;-55
2021/04/07 07:46:26;;;;;;;1.57;0.60;;;19.30;48.60;;;;;;10427212;28;20586;-53
2021/04/07 07:51:49;;;;;;;1.83;0.60;;;19.30;48.60;;;;;;10413584;28;20214;-55
2021/04/07 07:57:11;;;;;;;1.40;0.63;;;19.30;48.40;;;;;;10418320;28;20221;-58
2021/04/07 08:02:35;;;;;;;1.17;0.70;;;19.30;48.40;;;;;;10426319;28;20217;-56
2021/04/07 08:07:57;;;;;;;1.60;0.77;;;19.30;48.50;;;;;;10455677;28;20213;-58
2021/04/07 08:13:19;;;;;;;1.33;0.70;;;19.30;48.40;;;;;;10455108;28;20217;-56
2021/04/07 08:18:41;;;;;;;1.67;0.70;;;19.30;48.40;;;;;;10455291;28;20204;-53
2021/04/07 08:24:07;;;;;;;1.50;0.50;;;19.30;48.40;;;;;;10453548;28;20217;-53
2021/04/07 08:29:29;;;;;;;0.73;0.50;;;19.30;48.30;;;;;;10454958;28;20671;-57
2021/04/07 08:34:52;;;;;;;4.60;0.77;;;19.30;48.30;;;;;;10425956;28;20201;-55
2021/04/07 08:40:17;;;;;;;1.87;0.63;;;19.30;48.30;;;;;;10413207;28;20218;-53
2021/04/07 08:45:44;;;;;;;2.43;0.77;;;19.30;48.40;;;;;;10414216;28;20212;-55
2021/04/07 08:51:07;;;;;;;14.67;1.63;;;19.30;48.40;;;;;;10412994;28;21039;-56
2021/04/07 08:56:31;;;;;;;11.33;1.20;;;19.30;48.00;;;;;;10433173;28;20208;-54
2021/04/07 09:02:06;;;;;;;5.50;0.70;;;19.30;48.20;;;;;;10449321;28;20220;-54
2021/04/07 09:07:41;;;;;;;3.57;1.00;;;19.30;48.30;;;;;;10450584;28;20259;-55
2021/04/07 09:13:07;;;;;;;7.60;3.03;;;19.30;48.40;;;;;;10449423;28;20248;-56
2021/04/07 09:18:35;;;;;;;39.30;29.53;;;19.10;48.00;;;;;;10408601;28;20194;-56
2021/04/07 09:23:58;;;;;;;29.37;20.90;;;19.20;47.60;;;;;;10411788;28;20217;-55
2021/04/07 09:29:21;;;;;;;22.13;16.17;;;19.20;47.70;;;;;;10411362;28;20213;-54
2021/04/07 09:34:44;;;;;;;20.40;13.33;;;19.20;47.90;;;;;;10415621;28;20197;-54
2021/04/07 09:40:16;;;;;;;18.50;13.47;;;19.30;48.00;;;;;;10411179;28;20580;-55
2021/04/07 09:45:38;;;;;;;17.03;12.83;;;19.30;48.00;;;;;;10410840;28;20571;-56
2021/04/07 09:51:00;;;;;;;12.83;11.33;;;19.30;48.20;;;;;;10411152;28;20228;-55
2021/04/07 09:56:22;;;;;;;11.33;8.17;;;19.30;48.20;;;;;;10413610;28;20197;-56
2021/04/07 10:01:44;;;;;;;10.97;7.90;;;19.20;48.10;;;;;;10445354;28;20221;-57
2021/04/07 10:07:11;;;;;;;10.83;6.53;;;19.20;47.80;;;;;;10433494;28;20301;-55
2021/04/07 10:12:33;;;;;;;12.03;7.10;;;19.20;47.50;;;;;;10409882;28;20217;-57
2021/04/07 10:17:56;;;;;;;11.03;5.37;;;19.20;47.20;;;;;;10423882;28;20233;-53
2021/04/07 10:23:21;;;;;;;10.03;4.80;;;19.10;47.00;;;;;;10409614;28;20218;-55
2021/04/07 10:28:54;;;;;;;13.77;4.30;;;19.10;46.80;;;;;;10412075;28;20212;-53
2021/04/07 10:34:16;;;;;;;7.93;3.87;;;19.10;46.50;;;;;;10421443;28;20268;-54
2021/04/07 10:39:39;;;;;;;15.60;3.90;;;19.10;46.40;;;;;;10418426;28;20189;-54
2021/04/07 10:45:03;;;;;;;6.53;3.40;;;19.00;46.40;;;;;;10443248;28;20197;-54
2021/04/07 10:50:31;;;;;;;3.70;2.50;;;19.10;46.40;;;;;;10450857;28;20216;-56
2021/04/07 10:55:52;;;;;;;6.47;2.57;;;19.00;45.90;;;;;;10456750;28;20582;-52
2021/04/07 11:01:14;;;;;;;18.13;9.23;;;19.00;45.40;;;;;;10458467;28;20266;-55
2021/04/07 11:06:37;;;;;;;12.23;6.93;;;18.90;45.30;;;;;;10460661;23;20217;-58
2021/04/07 11:11:59;;;;;;;11.03;5.60;;;18.90;44.90;;;;;;10421145;28;20210;-59
2021/04/07 11:17:21;;;;;;;12.93;5.53;;;18.90;44.80;;;;;;10445821;28;20197;-59
2021/04/07 11:22:44;;;;;;;7.93;4.37;;;18.90;44.90;;;;;;10456577;28;20216;-56
2021/04/07 11:28:14;;;;;;;5.67;4.03;;;18.80;44.50;;;;;;10456090;28;20213;-59
2021/04/07 11:33:43;;;;;;;6.30;3.33;;;18.80;44.50;;;;;;10449258;28;20763;-60
2021/04/07 11:39:13;;;;;;;4.40;2.60;;;18.80;44.50;;;;;;10453321;28;20196;-58
2021/04/07 11:44:35;;;;;;;4.00;2.60;;;18.80;44.20;;;;;;10456188;28;20426;-60
2021/04/07 11:49:56;;;;;;;6.87;2.77;;;18.90;44.10;;;;;;10456430;28;20212;-59
2021/04/07 11:55:19;;;;;;;4.23;2.50;;;18.90;44.20;;;;;;10456602;28;20756;-61
2021/04/07 12:00:41;;;;;;;4.70;2.13;;;18.80;44.10;;;;;;10455791;28;20217;-60
2021/04/07 12:06:03;;;;;;;4.40;1.80;;;18.70;44.10;;;;;;10449397;28;20205;-60
2021/04/07 12:11:26;;;;;;;3.73;1.70;;;18.70;44.20;;;;;;10409381;28;20217;-58
2021/04/07 12:16:48;;;;;;;2.57;1.83;;;18.70;44.10;;;;;;10410052;28;20201;-60
2021/04/07 12:22:11;;;;;;;1.70;1.33;;;18.60;44.20;;;;;;10410481;28;20941;-58
2021/04/07 12:27:34;;;;;;;3.37;1.10;;;18.60;44.30;;;;;;10413970;28;20209;-58
2021/04/07 12:32:57;;;;;;;1.70;1.17;;;18.60;44.30;;;;;;10424236;28;20682;-59
2021/04/07 12:38:19;;;;;;;1.90;1.10;;;18.60;45.00;;;;;;10453309;28;20196;-56
2021/04/07 12:43:41;;;;;;;2.97;1.23;;;18.60;44.40;;;;;;10412043;28;20214;-56
2021/04/07 12:49:04;;;;;;;1.77;1.10;;;18.60;44.40;;;;;;10451943;28;20619;-56
2021/04/07 12:54:25;;;;;;;1.17;0.90;;;18.60;44.40;;;;;;10454308;28;20209;-58
2021/04/07 12:59:49;;;;;;;1.13;0.80;;;18.60;44.50;;;;;;10453002;28;20193;-60
2021/04/07 13:05:11;;;;;;;1.10;0.60;;;18.50;44.40;;;;;;10450321;28;20278;-56
2021/04/07 13:10:37;;;;;;;1.70;1.10;;;18.60;44.60;;;;;;10453136;28;20228;-58
2021/04/07 13:16:00;;;;;;;0.80;0.73;;;18.50;44.70;;;;;;10454092;28;20232;-58
2021/04/07 13:21:21;;;;;;;2.50;0.90;;;18.50;44.80;;;;;;10451555;28;20212;-55
2021/04/07 13:26:43;;;;;;;1.93;1.00;;;18.50;44.70;;;;;;10451464;28;20196;-56
2021/04/07 13:32:07;;;;;;;1.30;0.90;;;18.50;44.80;;;;;;10450866;28;20239;-60
2021/04/07 13:37:47;;;;;;;2.27;0.93;;;18.40;44.70;;;;;;10412569;28;20225;-56
2021/04/07 13:43:09;;;;;;;1.57;1.20;;;18.40;44.50;;;;;;10411165;28;20216;-58
2021/04/07 13:48:31;;;;;;;1.70;1.10;;;18.40;44.30;;;;;;10410355;28;20268;-58
2021/04/07 13:53:53;;;;;;;3.40;1.20;;;18.40;44.10;;;;;;10412428;28;20222;-58
2021/04/07 13:59:15;;;;;;;3.37;1.13;;;18.30;43.80;;;;;;10410752;28;20197;-61
2021/04/07 14:04:37;;;;;;;1.60;0.80;;;18.30;43.70;;;;;;10421393;28;20221;-60
2021/04/07 14:09:59;;;;;;;2.60;1.10;;;18.30;43.40;;;;;;10424272;28;20233;-62
2021/04/07 14:15:22;;;;;;;2.27;1.10;;;18.20;43.30;;;;;;10409936;28;20671;-61
2021/04/07 14:20:44;;;;;;;2.43;0.97;;;18.30;43.40;;;;;;10409455;28;20607;-61
2021/04/07 14:26:09;;;;;;;5.07;1.40;;;18.40;43.60;;;;;;10408242;28;20198;-59
2021/04/07 14:31:32;;;;;;;2.00;1.03;;;18.50;44.20;;;;;;10408774;28;20225;-60
2021/04/07 14:36:55;;;;;;;3.80;1.43;;;18.60;44.80;;;;;;10415324;28;20209;-60
2021/04/07 14:42:17;;;;;;;3.03;1.50;;;18.60;45.10;;;;;;10445946;28;20641;-61
2021/04/07 14:47:38;;;;;;;2.37;1.10;;;18.70;45.50;;;;;;10448050;28;20217;-57
2021/04/07 14:53:01;;;;;;;3.83;1.40;;;18.60;45.70;;;;;;10450049;28;20220;-60
2021/04/07 14:58:23;;;;;;;2.97;1.10;;;18.70;45.90;;;;;;10449673;28;20200;-58
2021/04/07 15:03:45;;;;;;;2.20;1.30;;;18.90;45.80;;;;;;10449232;28;20213;-59
2021/04/07 15:09:08;;;;;;;2.87;1.53;;;18.90;46.10;;;;;;10450166;28;20586;-59
2021/04/07 15:14:32;;;;;;;3.87;1.73;;;18.90;46.40;;;;;;10439851;28;20219;-61
2021/04/07 15:19:54;;;;;;;4.50;1.70;;;18.90;46.60;;;;;;10448930;28;20193;-59
2021/04/07 15:25:20;;;;;;;3.43;1.60;;;18.90;46.70;;;;;;10447012;28;20572;-59
2021/04/07 15:30:47;;;;;;;4.73;2.00;;;18.90;46.90;;;;;;10449188;28;20237;-59
2021/04/07 15:36:10;;;;;;;3.07;1.77;;;18.90;47.10;;;;;;10415262;28;20607;-58
2021/04/07 15:41:33;;;;;;;4.70;1.93;;;18.90;47.30;;;;;;10411893;28;20221;-58
2021/04/07 15:46:58;;;;;;;4.63;1.83;;;18.90;47.40;;;;;;10415957;28;20581;-60
2021/04/07 15:52:23;;;;;;;4.23;1.80;;;18.90;47.50;;;;;;10414862;28;20214;-58
2021/04/07 15:57:45;;;;;;;4.33;1.80;;;18.90;47.60;;;;;;10415330;28;20232;-58
2021/04/07 16:03:07;;;;;;;3.03;1.47;;;18.90;47.60;;;;;;10440525;28;20550;-58
2021/04/07 16:08:29;;;;;;;3.60;2.00;;;18.90;47.60;;;;;;10455405;28;20225;-58
2021/04/07 16:13:52;;;;;;;3.20;1.70;;;18.90;47.60;;;;;;10456162;28;20563;-61
2021/04/07 16:19:13;;;;;;;3.67;1.77;;;18.90;47.60;;;;;;10455035;28;20540;-62
2021/04/07 16:24:35;;;;;;;3.80;1.70;;;18.90;47.70;;;;;;10431518;28;20232;-61
2021/04/07 16:29:57;;;;;;;3.67;2.07;;;19.00;47.80;;;;;;10434048;28;20221;-60
2021/04/07 16:35:19;;;;;;;3.22;1.90;;;19.00;47.50;;;;;;10443796;28;20428;-60
2021/04/07 16:40:41;;;;;;;3.17;1.73;;;19.60;46.30;;;;;;10444806;28;20209;-61
2021/04/07 16:46:03;;;;;;;3.97;1.87;;;19.30;47.20;;;;;;10454227;28;20191;-61
2021/04/07 16:51:25;;;;;;;2.30;1.50;;;19.20;47.40;;;;;;10409544;28;20222;-61
2021/04/07 16:56:47;;;;;;;2.87;1.93;;;19.20;47.50;;;;;;10452547;28;20197;-61
2021/04/07 17:02:09;;;;;;;2.00;1.40;;;19.20;47.60;;;;;;10452304;28;20239;-60
2021/04/07 17:07:32;;;;;;;2.23;1.43;;;19.20;47.70;;;;;;10442233;22;20238;-56
2021/04/07 17:12:53;;;;;;;3.07;1.40;;;19.20;47.80;;;;;;10411460;28;20697;-53
2021/04/07 17:18:16;;;;;;;5.33;1.60;;;19.20;47.80;;;;;;10411442;28;20205;-56
2021/04/07 17:23:37;;;;;;;2.73;1.50;;;19.30;47.80;;;;;;10387044;28;20698;-53
2021/04/07 17:28:59;;;;;;;3.97;1.67;;;19.30;47.80;;;;;;10393662;28;20223;-54
2021/04/07 17:34:22;;;;;;;2.53;1.63;;;19.30;48.10;;;;;;10427976;28;20305;-56
2021/04/07 17:39:43;;;;;;;2.80;1.43;;;19.30;47.80;;;;;;10429192;28;20186;-56
2021/04/07 17:45:06;;;;;;;3.67;1.50;;;19.30;48.40;;;;;;10428722;28;20201;-56
2021/04/07 17:50:29;;;;;;;2.83;1.40;;;19.30;47.90;;;;;;10426116;28;20598;-53
2021/04/07 17:55:51;;;;;;;3.90;1.07;;;19.30;47.90;;;;;;10430150;28;20744;-56
2021/04/07 18:01:13;;;;;;;1.80;1.13;;;19.30;47.90;;;;;;10422004;28;20247;-54
2021/04/07 18:06:36;;;;;;;1.67;1.00;;;19.30;47.90;;;;;;10428900;28;20206;-55
2021/04/07 18:11:57;;;;;;;1.57;1.10;;;19.30;47.90;;;;;;10422192;28;20638;-54
2021/04/07 18:17:19;;;;;;;2.37;1.30;;;19.30;47.90;;;;;;10426098;28;20189;-56
2021/04/07 18:22:42;;;;;;;1.60;1.10;;;19.30;47.90;;;;;;10425606;28;20221;-54
2021/04/07 18:28:05;;;;;;;1.67;0.90;;;19.30;47.90;;;;;;10427006;28;20229;-55
2021/04/07 18:33:26;;;;;;;2.23;1.10;;;19.30;47.90;;;;;;10423010;28;20228;-53
2021/04/07 18:38:49;;;;;;;2.10;1.10;;;19.30;47.90;;;;;;10428345;28;20197;-56
2021/04/07 18:44:11;;;;;;;2.00;0.93;;;19.30;47.90;;;;;;10423499;28;20303;-54
2021/04/07 18:49:33;;;;;;;1.40;0.90;;;19.30;48.00;;;;;;10427372;28;20267;-52
2021/04/07 18:54:55;;;;;;;1.97;0.73;;;19.30;48.00;;;;;;10423743;28;20312;-55
2021/04/07 19:00:20;;;;;;;1.70;1.00;;;19.30;48.00;;;;;;10426543;28;20213;-54
2021/04/07 19:05:42;;;;;;;1.90;1.00;;;19.30;48.00;;;;;;10425503;28;20574;-56
2021/04/07 19:11:04;;;;;;;1.70;1.10;;;19.30;48.00;;;;;;10425506;28;20284;-55
2021/04/07 19:16:26;;;;;;;2.33;1.20;;;19.30;48.00;;;;;;10430574;28;20194;-52
2021/04/07 19:21:48;;;;;;;1.37;0.90;;;19.30;48.00;;;;;;10434963;28;20214;-56
2021/04/07 19:27:10;;;;;;;1.07;0.90;;;19.30;48.00;;;;;;10422921;28;20194;-53
2021/04/07 19:32:32;;;;;;;1.07;0.73;;;19.30;48.00;;;;;;10411376;28;20214;-57
2021/04/07 19:37:54;;;;;;;1.83;1.13;;;19.30;48.10;;;;;;10416202;28;20190;-57
2021/04/07 19:43:16;;;;;;;1.57;0.90;;;19.30;48.10;;;;;;10408955;28;20220;-57
2021/04/07 19:48:40;;;;;;;1.60;0.90;;;19.30;48.20;;;;;;10415303;28;20683;-58
2021/04/07 19:54:01;;;;;;;1.63;0.80;;;19.30;48.20;;;;;;10387616;28;20257;-56
2021/04/07 19:59:24;;;;;;;2.60;1.03;;;19.30;48.20;;;;;;10413828;28;20189;-57
2021/04/07 20:04:46;;;;;;;1.73;0.93;;;19.20;48.30;;;;;;10414718;28;20783;-57
2021/04/07 20:10:09;;;;;;;1.77;1.00;;;19.20;48.30;;;;;;10413857;28;20253;-56
2021/04/07 20:15:32;;;;;;;1.77;0.70;;;19.20;48.40;;;;;;10415201;28;20814;-52
2021/04/07 20:20:54;;;;;;;3.00;1.07;;;19.10;48.40;;;;;;10413273;28;20626;-57
2021/04/07 20:26:16;;;;;;;1.90;0.80;;;19.10;48.40;;;;;;10413608;28;20733;-55
2021/04/07 20:31:38;;;;;;;1.93;1.07;;;19.10;48.40;;;;;;10412183;28;20221;-56
2021/04/07 20:37:00;;;;;;;2.33;1.00;;;19.10;48.40;;;;;;10412901;28;20675;-56
2021/04/07 20:42:21;;;;;;;1.40;0.90;;;19.10;48.40;;;;;;10411951;28;20209;-57
2021/04/07 20:47:44;;;;;;;1.53;1.00;;;19.20;48.50;;;;;;10413947;28;20203;-56
2021/04/07 20:53:08;;;;;;;1.93;0.90;;;19.10;48.50;;;;;;10413266;28;20233;-55
2021/04/07 20:58:29;;;;;;;2.70;0.90;;;19.10;48.60;;;;;;10412469;28;20194;-55
2021/04/07 21:03:52;;;;;;;2.37;0.90;;;19.10;48.70;;;;;;10410455;28;20217;-54
2021/04/07 21:09:13;;;;;;;2.03;1.07;;;19.10;49.40;;;;;;10411583;28;20625;-55
2021/04/07 21:14:35;;;;;;;3.07;0.83;;;19.10;48.80;;;;;;10413127;28;20217;-56
2021/04/07 21:19:58;;;;;;;2.00;0.80;;;19.00;48.80;;;;;;10406456;28;20215;-54
2021/04/07 21:25:19;;;;;;;1.73;0.87;;;19.10;48.90;;;;;;10407426;28;20205;-57
2021/04/07 21:30:41;;;;;;;0.70;0.63;;;19.10;48.80;;;;;;10409962;28;20221;-57
2021/04/07 21:36:04;;;;;;;2.37;0.93;;;19.10;48.80;;;;;;10406785;28;20210;-57
2021/04/07 21:41:25;;;;;;;1.63;0.80;;;19.20;48.90;;;;;;10409472;28;20240;-57
2021/04/07 21:46:47;;;;;;;1.87;0.80;;;19.10;48.80;;;;;;10410823;28;20202;-56
2021/04/07 21:52:09;;;;;;;1.60;0.70;;;19.10;48.80;;;;;;10411037;28;20568;-54
2021/04/07 21:57:31;;;;;;;1.70;0.80;;;19.10;48.80;;;;;;10409469;28;20225;-54
2021/04/07 22:02:53;;;;;;;1.27;0.77;;;19.10;48.90;;;;;;10404286;28;20221;-54
2021/04/07 22:08:16;;;;;;;1.80;0.70;;;19.10;48.90;;;;;;10410683;28;20217;-55
2021/04/07 22:13:38;;;;;;;1.93;0.97;;;19.10;48.80;;;;;;10410355;28;20221;-56
2021/04/07 22:19:00;;;;;;;1.53;0.80;;;19.10;48.90;;;;;;10409890;28;20185;-55
2021/04/07 22:24:24;;;;;;;1.97;0.90;;;19.10;48.80;;;;;;10409705;28;20585;-58
2021/04/07 22:29:45;;;;;;;1.40;0.77;;;19.00;48.80;;;;;;10409820;28;20218;-57
2021/04/07 22:35:08;;;;;;;1.73;0.77;;;19.00;48.80;;;;;;10404945;28;20745;-57
2021/04/07 22:40:30;;;;;;;1.20;0.90;;;19.00;48.80;;;;;;10407688;28;20717;-55
2021/04/07 22:45:52;;;;;;;1.53;0.50;;;19.10;48.80;;;;;;10409075;28;20198;-56
2021/04/07 22:51:14;;;;;;;1.67;0.80;;;19.10;48.80;;;;;;10406475;28;20599;-57
2021/04/07 22:56:36;;;;;;;3.47;0.80;;;19.10;48.80;;;;;;10409217;28;20201;-55
2021/04/07 23:01:58;;;;;;;1.30;0.90;;;19.00;49.40;;;;;;10405430;28;20228;-57
2021/04/07 23:07:20;;;;;;;2.07;0.97;;;19.10;48.80;;;;;;10410263;22;20226;-58
2021/04/07 23:12:42;;;;;;;1.50;0.77;;;19.00;48.80;;;;;;10374122;28;20226;-60
2021/04/07 23:18:05;;;;;;;2.70;0.80;;;19.00;48.80;;;;;;10368690;28;20264;-61
2021/04/07 23:23:26;;;;;;;1.67;0.60;;;19.00;48.70;;;;;;10367470;28;20218;-61
2021/04/07 23:28:49;;;;;;;1.67;0.70;;;19.00;48.70;;;;;;10368220;28;20217;-61
2021/04/07 23:34:10;;;;;;;2.20;0.90;;;19.00;48.80;;;;;;10346127;28;20234;-61
2021/04/07 23:39:32;;;;;;;1.83;0.90;;;19.00;48.80;;;;;;10328026;28;20802;-60
2021/04/07 23:44:54;;;;;;;1.67;0.70;;;19.00;48.80;;;;;;10359643;28;20194;-60
2021/04/07 23:50:16;;;;;;;1.97;0.80;;;19.00;48.70;;;;;;10366584;28;20919;-59
2021/04/07 23:55:38;;;;;;;1.87;1.00;;;19.00;48.70;;;;;;10362429;28;20199;-60
